createdAt,value
2022-08-16T00:02:33.317Z,48.83
2022-08-16T00:05:00.732Z,47.36
2022-08-16T00:07:28.988Z,47.02
2022-08-16T00:09:56.824Z,46.97
2022-08-16T00:12:24.006Z,46.98
2022-08-16T00:14:50.907Z,46.93
2022-08-16T00:17:23.881Z,47.60
2022-08-16T00:19:53.721Z,47.56
2022-08-16T00:22:24.938Z,47.72
2022-08-16T00:24:54.311Z,47.79
2022-08-16T00:27:22.236Z,48.17
2022-08-16T00:30:00.878Z,48.22
2022-08-16T00:32:37.240Z,47.87
2022-08-16T00:35:13.309Z,47.90
2022-08-16T00:37:58.194Z,47.73
2022-08-16T00:40:43.616Z,47.76
2022-08-16T00:43:42.685Z,47.11
2022-08-16T00:46:33.891Z,47.41
2022-08-16T00:49:17.451Z,47.99
2022-08-16T00:51:47.199Z,48.11
2022-08-16T00:54:25.244Z,47.84
2022-08-16T00:56:56.785Z,47.82
2022-08-16T00:59:27.395Z,47.59
2022-08-16T01:01:54.980Z,47.44
2022-08-16T01:04:28.967Z,47.76
2022-08-16T01:07:01.280Z,48.46
2022-08-16T01:09:33.088Z,48.08
2022-08-16T01:12:02.012Z,47.56
2022-08-16T01:14:34.106Z,48.22
2022-08-16T01:17:02.305Z,48.31
2022-08-16T01:19:40.842Z,47.64
2022-08-16T01:22:46.807Z,48.04
2022-08-16T01:25:18.930Z,49.34
2022-08-16T01:27:52.076Z,49.46
2022-08-16T01:30:26.470Z,50.49
2022-08-16T01:33:01.972Z,50.97
2022-08-16T01:35:52.690Z,51.05
2022-08-16T01:38:33.889Z,50.72
2022-08-16T01:41:20.005Z,51.08
2022-08-16T01:43:53.836Z,50.44
2022-08-16T01:46:37.342Z,50.93
2022-08-16T01:49:20.355Z,51.97
2022-08-16T01:51:59.503Z,51.80
2022-08-16T01:54:46.190Z,51.66
2022-08-16T01:57:12.872Z,51.51
2022-08-16T01:59:41.307Z,51.95
2022-08-16T02:02:27.438Z,52.21
2022-08-16T02:04:55.090Z,52.53
2022-08-16T02:07:25.642Z,52.83
2022-08-16T02:09:57.168Z,53.28
2022-08-16T02:12:51.681Z,53.43
2022-08-16T02:15:15.682Z,53.40
2022-08-16T02:17:43.228Z,53.15
2022-08-16T02:20:13.654Z,53.04
2022-08-16T02:22:40.363Z,53.15
2022-08-16T02:25:11.258Z,53.23
2022-08-16T02:27:40.891Z,53.34
2022-08-16T02:30:36.561Z,53.15
2022-08-16T02:33:04.010Z,53.34
2022-08-16T02:35:31.463Z,53.29
2022-08-16T02:38:01.697Z,53.63
2022-08-16T02:40:37.378Z,53.90
2022-08-16T02:43:04.414Z,54.21
2022-08-16T02:45:31.865Z,53.42
2022-08-16T02:48:01.064Z,53.10
2022-08-16T02:50:54.289Z,53.29
2022-08-16T02:53:32.928Z,53.60
2022-08-16T02:56:00.537Z,53.30
2022-08-16T02:58:29.179Z,53.14
2022-08-16T03:00:57.692Z,53.38
2022-08-16T03:03:27.235Z,53.57
2022-08-16T03:06:41.934Z,53.60
2022-08-16T03:09:14.954Z,53.15
2022-08-16T03:11:47.557Z,52.34
2022-08-16T03:14:21.245Z,52.52
2022-08-16T03:17:00.372Z,53.33
2022-08-16T03:19:47.274Z,53.83
2022-08-16T03:22:28.650Z,53.54
2022-08-16T03:25:04.495Z,53.19
2022-08-16T03:27:35.274Z,53.35
2022-08-16T03:30:16.098Z,52.49
2022-08-16T03:32:51.105Z,52.15
2022-08-16T03:35:22.589Z,52.07
2022-08-16T03:38:03.040Z,53.29
2022-08-16T03:40:39.448Z,52.39
2022-08-16T03:43:20.765Z,51.83
2022-08-16T03:45:53.349Z,51.38
2022-08-16T03:48:36.636Z,51.86
2022-08-16T03:51:12.413Z,51.31
2022-08-16T03:53:46.282Z,50.63
2022-08-16T03:56:27.970Z,50.68
2022-08-16T03:58:57.489Z,51.04
2022-08-16T04:01:29.372Z,50.37
2022-08-16T04:03:57.289Z,50.29
2022-08-16T04:06:23.899Z,50.92
2022-08-16T04:08:51.338Z,50.59
2022-08-16T04:11:18.654Z,50.69
2022-08-16T04:13:59.234Z,50.51
2022-08-16T04:16:37.482Z,50.46
2022-08-16T04:19:31.832Z,50.64
2022-08-16T04:22:00.824Z,50.94
2022-08-16T04:24:31.275Z,51.53
2022-08-16T04:26:58.852Z,51.38
2022-08-16T04:29:27.799Z,51.57
2022-08-16T04:32:11.059Z,51.12
2022-08-16T04:34:41.079Z,52.17
2022-08-16T04:37:08.828Z,51.86
2022-08-16T04:39:46.553Z,51.38
2022-08-16T04:42:25.984Z,50.92
2022-08-16T04:44:56.082Z,50.98
2022-08-16T04:47:35.568Z,51.23
2022-08-16T04:50:12.200Z,51.73
2022-08-16T04:52:56.873Z,51.09
2022-08-16T04:55:38.003Z,51.04
2022-08-16T04:58:44.198Z,51.04
2022-08-16T05:00:55.614Z,52.07
2022-08-16T05:03:23.406Z,52.72
2022-08-16T05:05:55.908Z,52.23
2022-08-16T05:08:32.000Z,52.49
2022-08-16T05:11:22.485Z,52.87
2022-08-16T05:13:49.619Z,53.29
2022-08-16T05:16:27.514Z,52.96
2022-08-16T05:19:06.204Z,52.16
2022-08-16T05:21:42.540Z,51.60
2022-08-16T05:24:11.217Z,51.23
2022-08-16T05:26:40.833Z,51.27
2022-08-16T05:29:15.288Z,51.38
2022-08-16T05:31:53.419Z,53.49
2022-08-16T05:34:22.488Z,51.65
2022-08-16T05:36:55.252Z,51.80
2022-08-16T05:39:27.981Z,53.29
2022-08-16T05:41:55.459Z,51.70
2022-08-16T05:44:25.204Z,53.42
2022-08-16T05:46:59.976Z,52.72
2022-08-16T05:49:39.461Z,53.13
2022-08-16T05:52:11.128Z,53.25
2022-08-16T05:54:40.076Z,52.96
2022-08-16T05:57:13.324Z,52.65
2022-08-16T05:59:40.696Z,52.17
2022-08-16T06:02:08.499Z,51.30
2022-08-16T06:04:37.781Z,52.65
2022-08-16T06:07:24.226Z,51.88
2022-08-16T06:10:00.012Z,52.22
2022-08-16T06:12:29.590Z,52.94
2022-08-16T06:15:08.021Z,53.96
2022-08-16T06:17:42.789Z,53.76
2022-08-16T06:20:35.755Z,53.28
2022-08-16T06:23:24.001Z,53.24
2022-08-16T06:26:08.195Z,54.37
2022-08-16T06:28:41.659Z,54.47
2022-08-16T06:31:15.037Z,54.37
2022-08-16T06:33:45.763Z,54.20
2022-08-16T06:36:15.275Z,54.48
2022-08-16T06:38:55.365Z,55.05
2022-08-16T06:41:39.871Z,55.63
2022-08-16T06:44:21.443Z,55.13
2022-08-16T06:46:53.399Z,55.17
2022-08-16T06:49:20.653Z,54.85
2022-08-16T06:51:48.846Z,55.16
2022-08-16T06:54:20.845Z,55.36
2022-08-16T06:56:47.514Z,54.87
2022-08-16T06:59:19.305Z,54.32
2022-08-16T07:01:55.172Z,54.59
2022-08-16T07:04:33.359Z,54.80
2022-08-16T07:07:14.559Z,54.15
2022-08-16T07:09:41.659Z,54.16
2022-08-16T07:12:08.777Z,53.88
2022-08-16T07:14:39.637Z,52.61
2022-08-16T07:17:08.286Z,53.57
2022-08-16T07:20:29.801Z,53.26
2022-08-16T07:22:37.314Z,52.80
2022-08-16T07:25:22.886Z,52.57
2022-08-16T07:27:50.405Z,52.38
2022-08-16T07:30:38.918Z,51.83
2022-08-16T07:33:10.272Z,51.85
2022-08-16T07:35:44.378Z,51.88
2022-08-16T07:38:19.643Z,51.53
2022-08-16T07:41:09.815Z,51.23
2022-08-16T07:43:43.690Z,50.33
2022-08-16T07:46:38.947Z,50.23
2022-08-16T07:49:04.790Z,50.63
2022-08-16T07:51:38.716Z,50.15
2022-08-16T07:54:10.590Z,50.23
2022-08-16T07:56:43.801Z,49.75
2022-08-16T07:59:10.604Z,49.79
2022-08-16T08:01:38.427Z,49.77
2022-08-16T08:04:08.726Z,49.69
2022-08-16T08:06:41.380Z,50.21
2022-08-16T08:09:13.253Z,49.70
2022-08-16T08:11:41.351Z,49.13
2022-08-16T08:14:30.046Z,48.73
2022-08-16T08:17:01.485Z,49.32
2022-08-16T08:19:30.113Z,48.64
2022-08-16T08:22:01.428Z,47.90
2022-08-16T08:24:59.198Z,47.25
2022-08-16T08:27:32.740Z,46.92
2022-08-16T08:30:49.813Z,47.63
2022-08-16T08:32:59.557Z,47.86
2022-08-16T08:35:36.688Z,47.53
2022-08-16T08:38:08.333Z,47.73
2022-08-16T08:40:37.751Z,47.35
2022-08-16T08:43:11.832Z,47.48
2022-08-16T08:45:52.419Z,46.47
2022-08-16T08:48:32.969Z,46.73
2022-08-16T08:51:02.873Z,46.60
2022-08-16T08:53:30.342Z,46.86
2022-08-16T08:55:59.018Z,46.87
2022-08-16T08:58:34.223Z,45.65
2022-08-16T09:01:31.853Z,45.64
2022-08-16T09:04:05.717Z,45.53
2022-08-16T09:06:33.844Z,45.93
2022-08-16T09:09:04.158Z,45.35
2022-08-16T09:11:38.892Z,45.17
2022-08-16T09:14:09.009Z,44.96
2022-08-16T09:17:01.109Z,44.69
2022-08-16T09:19:41.022Z,44.41
2022-08-16T09:22:20.175Z,45.26
2022-08-16T09:24:54.152Z,42.98
2022-08-16T09:27:57.383Z,42.86
2022-08-16T09:30:33.257Z,42.83
2022-08-16T09:33:01.898Z,42.61
2022-08-16T09:35:29.179Z,42.63
2022-08-16T09:38:01.065Z,42.44
2022-08-16T09:40:32.735Z,41.94
2022-08-16T09:43:21.101Z,42.46
2022-08-16T09:45:58.790Z,41.67
2022-08-16T09:48:44.078Z,41.40
2022-08-16T09:51:13.995Z,41.36
2022-08-16T09:53:41.830Z,41.63
2022-08-16T09:56:26.585Z,41.41
2022-08-16T09:59:05.429Z,41.50
2022-08-16T10:01:47.108Z,41.53
2022-08-16T10:04:31.564Z,41.15
2022-08-16T10:07:03.079Z,41.06
2022-08-16T10:09:53.460Z,41.63
2022-08-16T10:12:42.554Z,42.06
2022-08-16T10:15:15.884Z,41.89
2022-08-16T10:17:59.883Z,41.95
2022-08-16T10:20:32.469Z,41.15
2022-08-16T10:23:06.776Z,41.67
2022-08-16T10:27:17.655Z,42.13
2022-08-16T10:28:28.698Z,42.12
2022-08-16T10:31:00.575Z,42.01
2022-08-16T10:33:33.292Z,42.17
2022-08-16T10:36:03.793Z,41.52
2022-08-16T10:38:36.601Z,41.31
2022-08-16T10:41:08.391Z,40.92
2022-08-16T10:43:37.974Z,40.23
2022-08-16T10:46:39.437Z,40.19
2022-08-16T10:48:57.622Z,40.27
2022-08-16T10:51:34.444Z,40.22
2022-08-16T10:54:29.443Z,40.44
2022-08-16T10:57:03.279Z,40.17
2022-08-16T10:59:38.981Z,38.95
2022-08-16T11:02:57.558Z,38.19
2022-08-16T11:05:09.460Z,38.14
2022-08-16T11:07:43.703Z,37.30
2022-08-16T11:11:01.565Z,36.93
2022-08-16T11:15:55.455Z,35.65
2022-08-16T11:19:04.555Z,35.81
2022-08-16T11:21:10.660Z,35.41
2022-08-16T11:23:58.230Z,34.96
2022-08-16T11:26:26.262Z,34.78
2022-08-16T11:31:43.428Z,34.90
2022-08-16T11:34:13.572Z,34.65
2022-08-16T11:36:40.402Z,34.41
2022-08-16T11:39:25.965Z,33.98
2022-08-16T11:41:56.469Z,33.66
2022-08-16T11:44:52.028Z,33.73
2022-08-16T11:47:11.877Z,34.04
2022-08-16T11:49:38.436Z,34.23
2022-08-16T11:52:05.120Z,34.16
2022-08-16T11:54:36.150Z,34.62
2022-08-16T11:57:03.981Z,33.74
2022-08-16T11:59:40.026Z,33.84
2022-08-16T12:02:31.385Z,34.18
2022-08-16T12:04:54.523Z,33.72
2022-08-16T12:07:23.910Z,33.21
2022-08-16T12:09:53.179Z,32.47
2022-08-16T12:12:20.903Z,31.92
2022-08-16T12:14:54.466Z,32.00
2022-08-16T12:17:27.936Z,32.14
2022-08-16T12:19:59.006Z,31.91
2022-08-16T12:22:25.689Z,32.22
2022-08-16T12:24:53.392Z,31.88
2022-08-16T12:27:23.083Z,31.50
2022-08-16T12:29:54.867Z,32.30
2022-08-16T12:32:37.453Z,32.08
2022-08-16T12:35:19.013Z,31.17
2022-08-16T12:37:48.763Z,31.04
2022-08-16T12:40:29.175Z,31.41
2022-08-16T12:42:59.580Z,30.78
2022-08-16T12:45:31.430Z,30.36
2022-08-16T12:48:33.564Z,30.17
2022-08-16T12:51:13.426Z,30.55
2022-08-16T12:53:46.212Z,31.01
2022-08-16T12:56:13.680Z,30.75
2022-08-16T12:58:48.328Z,31.20
2022-08-16T13:01:19.544Z,31.64
2022-08-16T13:03:50.177Z,31.26
2022-08-16T13:06:29.391Z,31.22
2022-08-16T13:09:02.318Z,31.18
2022-08-16T13:11:57.176Z,30.79
2022-08-16T13:14:33.911Z,30.93
2022-08-16T13:17:03.892Z,30.74
2022-08-16T13:20:03.442Z,30.34
2022-08-16T13:22:22.174Z,31.05
2022-08-16T13:24:50.582Z,31.05
2022-08-16T13:27:17.909Z,30.47
2022-08-16T13:29:45.099Z,31.27
2022-08-16T13:32:39.702Z,30.26
2022-08-16T13:35:05.267Z,29.88
2022-08-16T13:37:32.615Z,29.76
2022-08-16T13:40:05.312Z,29.20
2022-08-16T13:42:32.555Z,28.98
2022-08-16T13:45:10.111Z,28.84
2022-08-16T13:47:42.550Z,28.64
2022-08-16T13:50:10.474Z,28.65
2022-08-16T13:52:39.837Z,28.80
2022-08-16T13:55:15.573Z,28.32
2022-08-16T13:58:34.704Z,28.97
2022-08-16T14:00:31.241Z,28.74
2022-08-16T14:02:59.256Z,29.24
2022-08-16T14:05:27.293Z,28.97
2022-08-16T14:07:54.104Z,29.08
2022-08-16T14:10:21.205Z,29.38
2022-08-16T14:12:48.492Z,29.39
2022-08-16T14:15:16.239Z,29.88
2022-08-16T14:18:15.861Z,29.75
2022-08-16T14:20:30.024Z,29.91
2022-08-16T14:22:57.038Z,29.90
2022-08-16T14:25:25.060Z,29.38
2022-08-16T14:27:54.640Z,28.73
2022-08-16T14:30:22.398Z,28.44
2022-08-16T14:32:51.290Z,28.83
2022-08-16T14:35:36.601Z,28.79
2022-08-16T14:38:18.000Z,29.42
2022-08-16T14:40:49.489Z,28.83
2022-08-16T14:43:20.051Z,29.20
2022-08-16T14:45:50.557Z,29.02
2022-08-16T14:48:25.036Z,28.95
2022-08-16T14:50:52.749Z,28.54
2022-08-16T14:53:19.329Z,27.69
2022-08-16T14:55:46.109Z,27.86
2022-08-16T14:58:19.556Z,27.79
2022-08-16T15:00:47.509Z,27.40
2022-08-16T15:03:17.562Z,27.10
2022-08-16T15:05:44.362Z,27.12
2022-08-16T15:08:11.233Z,27.09
2022-08-16T15:10:39.000Z,27.11
2022-08-16T15:13:10.767Z,26.88
2022-08-16T15:15:39.877Z,26.76
2022-08-16T15:18:09.994Z,27.16
2022-08-16T15:20:41.116Z,27.17
2022-08-16T15:23:10.007Z,26.92
2022-08-16T15:25:43.193Z,26.94
2022-08-16T15:28:31.250Z,27.52
2022-08-16T15:31:01.029Z,28.27
2022-08-16T15:33:33.562Z,28.43
2022-08-16T15:36:01.093Z,28.44
2022-08-16T15:38:57.962Z,28.32
2022-08-16T15:41:44.351Z,28.43
2022-08-16T15:44:17.865Z,28.73
2022-08-16T15:46:56.729Z,28.29
2022-08-16T15:49:37.791Z,27.53
2022-08-16T15:52:20.690Z,27.51
2022-08-16T15:54:53.033Z,28.17
2022-08-16T15:57:22.212Z,28.34
2022-08-16T15:59:55.681Z,28.74
2022-08-16T16:02:27.955Z,28.83
2022-08-16T16:04:57.356Z,28.47
2022-08-16T16:07:27.451Z,28.19
2022-08-16T16:09:58.179Z,28.33
2022-08-16T16:15:16.096Z,27.67
2022-08-16T16:17:43.892Z,27.81
2022-08-16T16:20:14.878Z,27.50
2022-08-16T16:22:43.522Z,27.65
2022-08-16T16:25:12.413Z,27.62
2022-08-16T16:27:39.441Z,28.18
2022-08-16T16:30:33.580Z,27.76
2022-08-16T16:32:57.386Z,28.04
2022-08-16T16:35:25.933Z,28.44
2022-08-16T16:37:56.484Z,28.02
2022-08-16T16:40:32.747Z,28.58
2022-08-16T16:43:00.343Z,28.59
2022-08-16T16:45:34.901Z,28.51
2022-08-16T16:48:12.426Z,28.65
2022-08-16T16:50:44.546Z,28.50
2022-08-16T16:53:17.409Z,28.04
2022-08-16T16:55:52.261Z,28.33
2022-08-16T16:58:43.221Z,28.63
2022-08-16T17:01:10.946Z,28.82
2022-08-16T17:03:38.619Z,28.55
2022-08-16T17:06:09.206Z,28.42
2022-08-16T17:08:40.650Z,28.46
2022-08-16T17:11:08.111Z,28.48
2022-08-16T17:13:35.149Z,28.31
2022-08-16T17:16:02.100Z,28.64
2022-08-16T17:19:16.825Z,28.68
2022-08-16T17:21:16.653Z,28.56
2022-08-16T17:23:58.808Z,28.96
2022-08-16T17:26:30.910Z,28.90
2022-08-16T17:29:02.201Z,29.08
2022-08-16T17:31:41.123Z,29.39
2022-08-16T17:34:29.390Z,29.68
2022-08-16T17:37:00.689Z,29.37
2022-08-16T17:39:45.250Z,29.59
2022-08-16T17:42:22.360Z,29.57
2022-08-16T17:44:52.160Z,29.58
2022-08-16T17:47:18.735Z,29.32
2022-08-16T17:49:45.387Z,29.25
2022-08-16T17:52:12.934Z,29.85
2022-08-16T17:54:39.828Z,29.54
2022-08-16T17:57:06.634Z,29.86
2022-08-16T17:59:36.935Z,30.20
2022-08-16T18:02:42.404Z,31.07
2022-08-16T18:04:55.716Z,31.51
2022-08-16T18:07:22.672Z,31.72
2022-08-16T18:09:49.617Z,31.65
2022-08-16T18:12:44.659Z,31.76
2022-08-16T18:15:16.739Z,32.11
2022-08-16T18:17:43.849Z,32.23
2022-08-16T18:20:30.545Z,31.85
2022-08-16T18:23:04.711Z,32.06
2022-08-16T18:25:31.388Z,31.91
2022-08-16T18:27:57.985Z,32.24
2022-08-16T18:30:24.624Z,32.27
2022-08-16T18:32:51.950Z,31.86
2022-08-16T18:35:20.745Z,32.19
2022-08-16T18:37:47.600Z,32.56
2022-08-16T18:40:15.492Z,32.86
2022-08-16T18:42:57.447Z,32.81
2022-08-16T18:45:25.567Z,33.20
2022-08-16T18:48:03.508Z,32.66
2022-08-16T18:50:58.458Z,33.67
2022-08-16T18:53:20.721Z,33.76
2022-08-16T18:55:48.928Z,33.80
2022-08-16T18:58:16.263Z,33.66
2022-08-16T19:00:55.812Z,33.50
2022-08-16T19:03:26.260Z,33.77
2022-08-16T19:06:13.850Z,33.80
2022-08-16T19:08:43.700Z,33.91
2022-08-16T19:11:18.819Z,33.97
2022-08-16T19:13:46.114Z,34.42
2022-08-16T19:16:13.714Z,34.47
2022-08-16T19:18:40.623Z,34.23
2022-08-16T19:21:09.200Z,34.19
2022-08-16T19:23:37.589Z,34.74
2022-08-16T19:26:11.074Z,35.21
2022-08-16T19:28:58.896Z,35.73
2022-08-16T19:31:33.720Z,36.20
2022-08-16T19:34:00.912Z,36.35
2022-08-16T19:36:37.397Z,36.70
2022-08-16T19:39:13.905Z,36.71
2022-08-16T19:41:43.158Z,37.28
2022-08-16T19:44:11.298Z,37.13
2022-08-16T19:46:38.442Z,36.55
2022-08-16T19:49:05.111Z,36.62
2022-08-16T19:51:32.194Z,37.43
2022-08-16T19:53:58.825Z,38.17
2022-08-16T19:56:26.641Z,38.77
2022-08-16T20:01:42.794Z,38.64
2022-08-16T20:04:13.529Z,38.49
2022-08-16T20:06:41.433Z,38.44
2022-08-16T20:09:08.119Z,39.04
2022-08-16T20:11:37.118Z,39.26
2022-08-16T20:14:04.407Z,39.25
2022-08-16T20:16:31.072Z,38.29
2022-08-16T20:18:57.804Z,39.34
2022-08-16T20:21:24.444Z,39.25
2022-08-16T20:23:51.152Z,39.94
2022-08-16T20:26:18.745Z,38.76
2022-08-16T20:28:54.221Z,38.32
2022-08-16T20:31:23.614Z,38.02
2022-08-16T20:33:51.725Z,38.97
2022-08-16T20:36:18.320Z,40.11
2022-08-16T20:38:47.014Z,39.50
2022-08-16T20:41:14.271Z,39.98
2022-08-16T20:43:40.906Z,39.79
2022-08-16T20:46:08.133Z,39.98
2022-08-16T20:48:34.713Z,39.36
2022-08-16T20:51:04.002Z,38.81
2022-08-16T20:53:30.574Z,39.58
2022-08-16T20:55:57.212Z,37.96
2022-08-16T20:58:23.808Z,39.32
2022-08-16T21:00:50.548Z,39.29
2022-08-16T21:03:17.159Z,38.11
2022-08-16T21:05:46.465Z,39.36
2022-08-16T21:08:51.551Z,38.92
2022-08-16T21:11:03.320Z,39.87
2022-08-16T21:13:33.922Z,39.32
2022-08-16T21:16:02.297Z,38.60
2022-08-16T21:18:29.264Z,38.67
2022-08-16T21:20:56.216Z,39.28
2022-08-16T21:23:23.075Z,39.32
2022-08-16T21:25:59.053Z,38.31
2022-08-16T21:28:42.085Z,40.11
2022-08-16T21:31:14.264Z,38.33
2022-08-16T21:33:42.504Z,38.93
2022-08-16T21:36:10.140Z,39.40
2022-08-16T21:38:37.165Z,39.39
2022-08-16T21:41:05.262Z,39.50
2022-08-16T21:43:33.287Z,40.15
2022-08-16T21:46:05.997Z,39.98
2022-08-16T21:48:35.673Z,39.48
2022-08-16T21:51:08.865Z,39.25
2022-08-16T21:53:36.244Z,39.80
2022-08-16T21:56:05.634Z,39.92
2022-08-16T21:58:33.968Z,39.32
2022-08-16T22:01:01.764Z,38.94
2022-08-16T22:03:32.707Z,39.62
2022-08-16T22:06:12.155Z,40.20
2022-08-16T22:08:49.170Z,39.76
2022-08-16T22:11:21.996Z,39.28
2022-08-16T22:13:52.788Z,39.72
2022-08-16T22:16:27.702Z,39.65
2022-08-16T22:18:54.557Z,39.82
2022-08-16T22:21:21.235Z,39.60
2022-08-16T22:23:56.942Z,39.77
2022-08-16T22:26:33.211Z,39.79
2022-08-16T22:29:09.250Z,40.24
2022-08-16T22:31:37.398Z,40.43
2022-08-16T22:34:04.674Z,40.52
2022-08-16T22:36:32.962Z,41.26
2022-08-16T22:39:03.534Z,41.36
2022-08-16T22:41:32.126Z,41.23
2022-08-16T22:43:59.197Z,40.96
2022-08-16T22:46:25.777Z,40.80
2022-08-16T22:48:52.397Z,40.65
2022-08-16T22:51:20.698Z,41.96
2022-08-16T22:53:47.472Z,42.04
2022-08-16T22:56:15.617Z,41.52
2022-08-16T22:58:42.514Z,41.20
2022-08-16T23:01:10.755Z,41.35
2022-08-16T23:03:38.006Z,42.41
2022-08-16T23:06:06.081Z,41.24
2022-08-16T23:08:40.029Z,41.92
2022-08-16T23:11:10.470Z,42.10
2022-08-16T23:13:37.206Z,41.62
2022-08-16T23:16:11.388Z,41.33
2022-08-16T23:18:39.213Z,41.52
2022-08-16T23:21:09.505Z,41.52
2022-08-16T23:23:37.228Z,41.67
2022-08-16T23:26:36.428Z,41.70
2022-08-16T23:28:51.367Z,42.03
2022-08-16T23:31:18.397Z,42.11
2022-08-16T23:33:45.918Z,42.69
2022-08-16T23:36:13.372Z,42.53
2022-08-16T23:38:40.051Z,42.19
2022-08-16T23:41:11.291Z,42.69
2022-08-16T23:43:43.935Z,42.39
2022-08-16T23:46:17.136Z,42.24
2022-08-16T23:49:58.178Z,42.28
2022-08-16T23:51:31.378Z,42.38
2022-08-16T23:53:58.009Z,42.24
2022-08-16T23:56:25.660Z,43.46
2022-08-16T23:58:55.983Z,43.07
